Time;durP1;ratioP1;P1;durP2;ratioP2;P2;SDS_P1;SDS_P2;PMS_P1;PMS_P2;Temp;Humidity;BMP_temperature;BMP_pressure;BME280_temperature;BME280_humidity;BME280_pressure;Samples;Min_cycle;Max_cycle;Signal;HPM_P1;HPM_P2
2022/11/02 00:00:51;;;;;;;11.65;5.28;;;;;;;11.54;nan;-24139.34;5014776;28;20270;-73
2022/11/02 00:03:16;;;;;;;8.32;4.43;;;;;;;11.55;nan;-24139.47;5014841;28;20252;-72
2022/11/02 00:05:42;;;;;;;9.98;5.57;;;;;;;11.40;nan;-24135.38;5014643;28;20210;-73
2022/11/02 00:08:07;;;;;;;13.38;5.85;;;;;;;11.42;nan;-24135.97;5014662;28;20666;-73
2022/11/02 00:10:33;;;;;;;10.68;6.07;;;;;;;10.87;nan;-24120.59;5014625;28;20636;-73
2022/11/02 00:12:58;;;;;;;10.25;5.63;;;;;;;11.50;nan;-24138.22;5046428;28;20659;-72
2022/11/02 00:15:26;;;;;;;8.25;4.57;;;;;;;11.29;nan;-24132.44;5013256;28;20199;-72
2022/11/02 00:18:02;;;;;;;8.25;4.95;;;;;;;11.25;nan;-24131.16;5014415;28;20251;-71
2022/11/02 00:20:28;;;;;;;12.20;6.13;;;;;;;11.33;nan;-24133.56;5014978;28;20176;-72
2022/11/02 00:22:56;;;;;;;8.20;4.40;;;;;;;10.90;nan;-24121.56;5045899;28;20187;-72
2022/11/02 00:25:24;;;;;;;10.48;4.90;;;;;;;10.91;nan;-24121.72;5014160;28;20250;-72
2022/11/02 00:27:49;;;;;;;9.07;5.97;;;;;;;10.86;nan;-24120.31;5014388;28;20172;-72
2022/11/02 00:30:15;;;;;;;7.90;4.63;;;;;;;11.15;nan;-24128.47;5014122;28;20187;-72
2022/11/02 00:32:41;;;;;;;13.27;5.97;;;;;;;11.12;nan;-24127.50;5013617;28;20658;-72
2022/11/02 00:35:07;;;;;;;11.60;5.67;;;;;;;11.12;nan;-24127.63;5013977;28;20662;-73
2022/11/02 00:37:32;;;;;;;13.57;5.90;;;;;;;11.06;nan;-24126.09;5013932;28;20656;-73
2022/11/02 00:39:57;;;;;;;12.77;5.10;;;;;;;11.10;nan;-24126.94;5014304;28;20182;-71
2022/11/02 00:42:23;;;;;;;9.13;4.23;;;;;;;11.02;nan;-24124.81;5013599;28;20199;-72
2022/11/02 00:44:48;;;;;;;10.40;5.40;;;;;;;11.01;nan;-24124.69;5013905;28;20259;-72
2022/11/02 00:47:13;;;;;;;9.47;5.50;;;;;;;10.97;nan;-24123.53;5013940;28;20179;-73
2022/11/02 00:49:39;;;;;;;7.57;4.37;;;;;;;10.68;nan;-24115.22;5014222;28;20640;-72
2022/11/02 00:52:04;;;;;;;10.10;4.90;;;;;;;10.66;nan;-24114.66;5013352;28;20235;-72
2022/11/02 00:54:30;;;;;;;13.27;5.83;;;;;;;10.86;nan;-24120.31;5011177;28;20290;-73
2022/11/02 00:56:55;;;;;;;14.03;5.80;;;;;;;10.74;nan;-24116.91;5013976;28;20203;-72
2022/11/02 00:59:21;;;;;;;12.93;5.53;;;;;;;10.61;nan;-24113.41;5014104;28;20179;-73
2022/11/02 01:01:48;;;;;;;10.90;5.80;;;;;;;10.60;nan;-24113.25;5012965;28;20175;-71
2022/11/02 01:04:13;;;;;;;14.40;6.17;;;;;;;10.59;nan;-24112.81;5013530;28;20176;-73
2022/11/02 01:06:39;;;;;;;11.33;6.00;;;;;;;10.04;nan;-24097.59;5013377;28;20173;-73
2022/11/02 01:09:05;;;;;;;11.30;6.07;;;;;;;10.62;nan;-24113.69;5013284;28;20229;-73
2022/11/02 01:11:30;;;;;;;11.40;6.10;;;;;;;10.16;nan;-24100.84;5013466;28;20176;-73
2022/11/02 01:13:55;;;;;;;8.70;4.87;;;;;;;10.56;nan;-24111.97;5011824;28;20203;-72
2022/11/02 01:16:21;;;;;;;13.90;6.93;;;;;;;10.37;nan;-24106.75;5012687;28;20176;-74
2022/11/02 01:18:50;;;;;;;13.87;6.57;;;;;;;10.25;nan;-24103.38;5012753;28;20184;-77
2022/11/02 01:21:15;;;;;;;12.23;6.13;;;;;;;9.81;nan;-24090.94;5013612;28;20241;-73
2022/11/02 01:23:41;;;;;;;9.93;5.37;;;;;;;10.17;nan;-24101.13;5012869;28;20710;-75
2022/11/02 01:26:08;;;;;;;14.10;5.20;;;;;;;10.04;nan;-24097.59;5013194;28;20298;-73
2022/11/02 01:28:35;;;;;;;7.67;4.67;;;;;;;9.84;nan;-24091.78;5012352;28;20242;-74
2022/11/02 01:31:01;;;;;;;9.50;5.13;;;;;;;9.61;nan;-24085.56;5012683;28;20176;-75
2022/11/02 01:33:26;;;;;;;12.33;5.47;;;;;;;9.93;nan;-24094.34;5011825;28;20196;-74
2022/11/02 01:35:53;;;;;;;12.53;6.07;;;;;;;9.91;nan;-24093.78;5012995;28;20180;-74
2022/11/02 01:38:19;;;;;;;11.83;5.23;;;;;;;9.84;nan;-24091.94;5013025;28;20179;-74
2022/11/02 01:40:44;;;;;;;10.13;5.17;;;;;;;9.81;nan;-24091.09;5011841;28;20636;-73
2022/11/02 01:43:25;;;;;;;13.73;5.90;;;;;;;9.84;nan;-24091.94;5013154;28;20176;-74
2022/11/02 01:45:55;;;;;;;14.67;5.13;;;;;;;9.72;nan;-24088.69;5013258;28;20361;-73
2022/11/02 01:48:35;;;;;;;10.07;4.93;;;;;;;9.62;nan;-24085.84;5011820;28;20322;-73
2022/11/02 01:51:04;;;;;;;9.30;5.00;;;;;;;9.74;nan;-24089.25;5013339;28;20255;-74
2022/11/02 01:53:32;;;;;;;10.00;5.40;;;;;;;9.70;nan;-24088.13;5012914;28;20207;-76
2022/11/02 01:55:59;;;;;;;8.80;5.50;;;;;;;9.65;nan;-24086.56;5011659;28;20202;-72
2022/11/02 01:58:25;;;;;;;12.07;5.23;;;;;;;9.54;nan;-24083.59;5044309;28;20183;-72
2022/11/02 02:00:51;;;;;;;9.50;5.23;;;;;;;9.66;nan;-24086.97;5012273;28;20275;-73
2022/11/02 02:03:17;;;;;;;8.30;5.27;;;;;;;9.63;nan;-24086.13;5012190;28;20258;-72
2022/11/02 02:05:47;;;;;;;8.67;4.90;;;;;;;9.49;nan;-24082.19;5044788;28;20179;-73
2022/11/02 02:08:16;;;;;;;10.53;5.33;;;;;;;9.40;nan;-24079.63;5013581;28;20176;-73
2022/11/02 02:10:42;;;;;;;8.93;5.23;;;;;;;9.46;nan;-24081.19;5012933;28;20172;-73
2022/11/02 02:13:08;;;;;;;11.30;5.73;;;;;;;9.51;nan;-24082.59;5011516;28;20713;-73
2022/11/02 02:15:45;;;;;;;11.40;5.87;;;;;;;9.28;nan;-24076.38;5013254;28;20207;-75
2022/11/02 02:18:20;;;;;;;9.33;5.47;;;;;;;9.50;nan;-24082.31;5012877;28;20603;-74
2022/11/02 02:21:00;;;;;;;8.87;5.00;;;;;;;9.11;nan;-24071.44;5044653;28;20207;-75
2022/11/02 02:23:42;;;;;;;11.10;5.47;;;;;;;9.43;nan;-24080.50;5044272;28;20639;-73
2022/11/02 02:26:32;;;;;;;9.73;5.83;;;;;;;9.44;nan;-24080.78;5012656;28;20277;-73
2022/11/02 02:29:10;;;;;;;8.47;4.33;;;;;;;9.34;nan;-24077.81;5044649;28;20180;-73
2022/11/02 02:31:37;;;;;;;8.23;5.10;;;;;;;9.43;nan;-24080.34;5044574;28;20180;-74
2022/11/02 02:34:05;;;;;;;9.83;5.23;;;;;;;9.32;nan;-24077.38;5012612;28;20207;-73
2022/11/02 02:36:46;;;;;;;13.83;5.60;;;;;;;9.04;nan;-24069.59;5012355;28;20559;-73
2022/11/02 02:39:19;;;;;;;18.43;5.73;;;;;;;9.01;nan;-24068.63;5011668;28;20176;-75
2022/11/02 02:42:18;;;;;;;7.27;5.00;;;;;;;9.22;nan;-24074.69;5044563;28;20183;-75
2022/11/02 02:44:57;;;;;;;7.40;5.03;;;;;;;9.28;nan;-24076.25;5009574;28;20203;-74
2022/11/02 02:47:26;;;;;;;8.67;4.90;;;;;;;8.92;nan;-24066.22;5012662;28;20192;-72
2022/11/02 02:50:12;;;;;;;12.27;5.87;;;;;;;9.21;nan;-24074.25;5044182;28;20275;-71
2022/11/02 02:52:41;;;;;;;9.33;4.53;;;;;;;9.22;nan;-24074.69;5012765;28;20176;-72
2022/11/02 02:55:12;;;;;;;10.07;5.80;;;;;;;9.09;nan;-24071.03;5044606;28;20300;-73
2022/11/02 02:57:38;;;;;;;10.17;5.60;;;;;;;9.03;nan;-24069.19;5012681;28;20543;-74
2022/11/02 03:00:04;;;;;;;15.73;5.83;;;;;;;8.96;nan;-24067.19;5012363;28;20544;-72
2022/11/02 03:02:32;;;;;;;12.33;4.70;;;;;;;8.83;nan;-24063.81;5010856;28;20675;-73
2022/11/02 03:04:58;;;;;;;7.40;4.40;;;;;;;8.98;nan;-24067.91;5012247;28;20249;-71
2022/11/02 03:07:30;;;;;;;8.93;4.53;;;;;;;8.97;nan;-24067.63;5011354;28;20604;-72
2022/11/02 03:10:10;;;;;;;8.63;4.63;;;;;;;8.66;nan;-24058.84;5011800;28;20238;-72
2022/11/02 03:13:07;;;;;;;12.73;5.80;;;;;;;9.00;nan;-24068.34;5011787;28;20658;-71
2022/11/02 03:16:07;;;;;;;8.27;4.60;;;;;;;8.57;nan;-24056.44;5027259;28;20183;-72
2022/11/02 03:18:52;;;;;;;6.20;4.60;;;;;;;9.01;nan;-24068.75;5001367;28;20678;-72
2022/11/02 03:21:35;;;;;;;9.10;4.57;;;;;;;8.98;nan;-24067.75;5012100;28;20198;-72
2022/11/02 03:24:35;;;;;;;7.20;4.13;;;;;;;8.84;nan;-24063.94;5011792;28;20180;-73
2022/11/02 03:27:23;;;;;;;10.40;5.47;;;;;;;8.83;nan;-24063.81;5012018;28;20234;-72
2022/11/02 03:29:58;;;;;;;8.27;4.33;;;;;;;8.71;nan;-24060.41;5011915;28;20192;-72
2022/11/02 03:32:26;;;;;;;7.47;4.63;;;;;;;8.66;nan;-24059.00;5011467;28;20610;-73
2022/11/02 03:34:56;;;;;;;8.50;4.57;;;;;;;8.52;nan;-24055.03;5011428;28;20200;-72
2022/11/02 03:37:28;;;;;;;9.90;5.23;;;;;;;8.33;nan;-24049.66;5011750;28;20184;-72
2022/11/02 03:40:07;;;;;;;8.73;4.90;;;;;;;8.57;nan;-24056.31;5011828;28;20183;-72
2022/11/02 03:42:34;;;;;;;9.50;4.90;;;;;;;8.26;nan;-24047.81;5011644;28;20234;-73
2022/11/02 03:45:11;;;;;;;8.93;4.63;;;;;;;8.58;nan;-24056.72;5010065;28;20601;-71
2022/11/02 03:47:38;;;;;;;12.27;5.33;;;;;;;8.37;nan;-24050.94;5011432;28;20180;-72
2022/11/02 03:50:07;;;;;;;9.80;5.10;;;;;;;8.36;nan;-24050.66;5014231;28;20529;-73
2022/11/02 03:52:38;;;;;;;8.53;5.03;;;;;;;8.07;nan;-24042.44;5015111;28;20640;-72
2022/11/02 03:55:12;;;;;;;9.33;4.77;;;;;;;7.83;nan;-24035.63;5014661;28;20196;-73
2022/11/02 03:57:45;;;;;;;6.73;3.77;;;;;;;8.02;nan;-24040.88;5015477;28;20187;-71
2022/11/02 04:00:22;;;;;;;8.23;4.73;;;;;;;8.11;nan;-24043.41;5014895;28;20566;-72
2022/11/02 04:02:52;;;;;;;8.47;4.87;;;;;;;8.14;nan;-24044.28;5015190;28;20183;-72
2022/11/02 04:05:17;;;;;;;7.30;4.07;;;;;;;8.10;nan;-24043.13;5015177;28;20180;-72
2022/11/02 04:10:32;;;;;;;5.70;4.80;;;;;;;3.03;nan;-23900.88;5014851;28;20558;-73
2022/11/02 04:15:41;;;;;;;6.50;4.73;;;;;;;8.24;nan;-24047.09;5014784;28;20662;-73
2022/11/02 04:20:51;;;;;;;10.63;5.00;;;;;;;8.04;nan;-24041.44;5014818;28;20167;-73
2022/11/02 04:26:02;;;;;;;6.37;4.13;;;;;;;7.86;nan;-24036.63;5018254;28;20253;-73
2022/11/02 04:28:27;;;;;;;7.13;4.10;;;;;;;7.71;nan;-24032.38;5019356;28;20199;-72
2022/11/02 04:30:52;;;;;;;6.07;4.37;;;;;;;7.78;nan;-24034.22;5019971;28;20214;-73
2022/11/02 04:33:34;;;;;;;6.47;3.93;;;;;;;7.85;nan;-24036.19;5018996;28;20213;-72
2022/11/02 04:36:05;;;;;;;9.90;5.23;;;;;;;7.83;nan;-24035.63;5020273;28;20239;-73
2022/11/02 04:38:40;;;;;;;8.37;5.30;;;;;;;7.37;nan;-24022.72;5018869;28;20194;-72
2022/11/02 04:41:42;;;;;;;8.47;4.67;;;;;;;7.71;nan;-24032.22;5018274;28;20656;-72
2022/11/02 04:44:09;;;;;;;5.00;3.27;;;;;;;7.46;nan;-24025.28;5019826;28;20702;-75
2022/11/02 04:46:37;;;;;;;6.07;4.53;;;;;;;7.39;nan;-24023.31;5018764;28;20187;-72
2022/11/02 04:49:04;;;;;;;7.93;4.03;;;;;;;7.23;nan;-24018.75;5018929;28;20191;-72
2022/11/02 04:51:30;;;;;;;12.93;4.90;;;;;;;7.26;nan;-24019.75;5017496;28;20183;-73
2022/11/02 04:53:57;;;;;;;10.03;5.60;;;;;;;7.55;nan;-24027.97;5019176;28;20289;-72
2022/11/02 04:56:23;;;;;;;13.03;5.40;;;;;;;7.43;nan;-24024.56;5017211;28;20233;-73
2022/11/02 04:58:50;;;;;;;11.77;4.67;;;;;;;7.51;nan;-24026.84;5018913;28;20670;-73
2022/11/02 05:01:17;;;;;;;7.73;4.23;;;;;;;7.29;nan;-24020.47;5017720;28;20253;-73
2022/11/02 05:03:42;;;;;;;11.00;4.87;;;;;;;7.20;nan;-24018.06;5016465;28;20624;-73
2022/11/02 05:06:11;;;;;;;7.47;4.20;;;;;;;7.35;nan;-24022.16;5018606;28;21974;-73
2022/11/02 05:08:37;;;;;;;6.83;4.43;;;;;;;7.58;nan;-24028.53;5018026;28;20318;-73
2022/11/02 05:11:03;;;;;;;8.97;5.60;;;;;;;7.34;nan;-24022.03;5018633;28;20188;-72
2022/11/02 05:13:28;;;;;;;7.23;4.63;;;;;;;7.62;nan;-24029.81;5016796;28;20217;-73
2022/11/02 05:15:58;;;;;;;8.33;4.70;;;;;;;7.48;nan;-24025.84;5018332;28;20190;-72
2022/11/02 05:18:26;;;;;;;8.53;4.50;;;;;;;7.68;nan;-24031.53;5016872;28;20262;-72
2022/11/02 05:20:53;;;;;;;8.30;4.87;;;;;;;7.70;nan;-24032.09;5017797;28;20654;-71
2022/11/02 05:23:20;;;;;;;9.17;4.60;;;;;;;7.68;nan;-24031.53;5016858;28;20689;-73
2022/11/02 05:26:04;;;;;;;10.13;4.77;;;;;;;7.97;nan;-24039.72;5017768;28;20294;-75
2022/11/02 05:28:31;;;;;;;7.77;4.27;;;;;;;8.09;nan;-24043.00;5017841;28;20190;-73
2022/11/02 05:31:01;;;;;;;7.53;4.30;;;;;;;7.89;nan;-24037.47;5017831;28;20187;-73
2022/11/02 05:33:28;;;;;;;5.47;3.90;;;;;;;7.92;nan;-24038.19;5021814;28;20256;-70
2022/11/02 05:35:55;;;;;;;7.47;4.83;;;;;;;8.37;nan;-24050.94;5016508;28;20182;-73
2022/11/02 05:38:22;;;;;;;9.57;5.77;;;;;;;8.09;nan;-24042.84;5016100;28;20610;-72
2022/11/02 05:40:54;;;;;;;5.87;3.63;;;;;;;8.45;nan;-24053.06;5017792;28;20190;-72
2022/11/02 05:43:20;;;;;;;7.67;5.00;;;;;;;8.31;nan;-24049.22;5017486;28;20205;-72
2022/11/02 05:46:00;;;;;;;9.37;5.20;;;;;;;8.47;nan;-24053.47;5014798;28;20663;-73
2022/11/02 05:48:27;;;;;;;6.27;3.80;;;;;;;8.53;nan;-24055.31;5017846;28;20253;-71
2022/11/02 05:50:56;;;;;;;8.17;4.90;;;;;;;8.69;nan;-24059.84;5015935;28;20183;-71
2022/11/02 05:53:23;;;;;;;12.97;4.83;;;;;;;8.78;nan;-24062.38;5018655;28;20229;-71
2022/11/02 05:55:48;;;;;;;9.80;5.03;;;;;;;8.78;nan;-24062.38;5015706;28;20607;-73
2022/11/02 05:58:13;;;;;;;13.67;5.93;;;;;;;9.06;nan;-24070.03;5016673;28;20242;-72
2022/11/02 06:00:39;;;;;;;8.17;4.63;;;;;;;8.89;nan;-24065.34;5017187;28;20180;-73
2022/11/02 06:03:06;;;;;;;8.90;4.67;;;;;;;9.27;nan;-24075.97;5016599;28;20184;-72
2022/11/02 06:05:32;;;;;;;8.63;5.60;;;;;;;9.12;nan;-24071.72;5017899;28;20305;-74
2022/11/02 06:07:58;;;;;;;7.20;4.13;;;;;;;9.48;nan;-24081.91;5015609;28;20187;-72
2022/11/02 06:10:25;;;;;;;8.23;4.33;;;;;;;9.54;nan;-24083.59;5017108;28;20211;-71
2022/11/02 06:12:58;;;;;;;9.27;4.43;;;;;;;9.70;nan;-24087.97;5016454;28;20241;-72
2022/11/02 06:15:24;;;;;;;9.00;4.80;;;;;;;9.73;nan;-24088.97;5016571;28;20176;-72
2022/11/02 06:17:50;;;;;;;8.73;4.87;;;;;;;9.67;nan;-24087.13;5016500;28;20707;-74
2022/11/02 06:20:16;;;;;;;6.57;4.37;;;;;;;10.11;nan;-24099.41;5016965;28;20270;-73
2022/11/02 06:22:42;;;;;;;8.00;4.03;;;;;;;10.06;nan;-24098.00;5017054;28;20640;-74
2022/11/02 06:25:08;;;;;;;15.40;4.60;;;;;;;10.13;nan;-24099.97;5015322;28;20222;-72
2022/11/02 06:27:34;;;;;;;6.17;4.07;;;;;;;10.62;nan;-24113.81;5016216;28;20190;-73
2022/11/02 06:30:00;;;;;;;10.20;4.40;;;;;;;10.57;nan;-24112.41;5016177;28;20263;-72
2022/11/02 06:32:25;;;;;;;10.17;3.80;;;;;;;10.76;nan;-24117.63;5016116;28;20183;-73
2022/11/02 06:34:51;;;;;;;9.20;4.57;;;;;;;10.59;nan;-24112.81;5016412;28;20222;-72
2022/11/02 06:37:16;;;;;;;5.53;3.83;;;;;;;10.73;nan;-24116.78;5015960;28;20288;-74
2022/11/02 06:39:41;;;;;;;6.17;4.30;;;;;;;10.87;nan;-24120.59;5016003;28;20179;-74
2022/11/02 06:42:07;;;;;;;7.30;4.57;;;;;;;10.91;nan;-24121.84;5017252;28;20226;-74
2022/11/02 06:44:33;;;;;;;8.23;5.30;;;;;;;11.41;nan;-24135.81;5016207;28;20226;-72
2022/11/02 06:46:58;;;;;;;8.82;4.82;;;;;;;11.48;nan;-24137.78;5017526;28;20326;-74
2022/11/02 06:49:23;;;;;;;14.88;5.43;;;;;;;11.58;nan;-24140.47;5015969;28;20241;-75
2022/11/02 06:51:52;;;;;;;11.25;5.25;;;;;;;12.05;nan;-24153.41;5016395;28;20183;-73
2022/11/02 06:54:17;;;;;;;6.70;4.97;;;;;;;12.06;nan;-24153.84;5015065;28;20342;-72
2022/11/02 06:56:43;;;;;;;6.13;4.30;;;;;;;11.97;nan;-24151.16;5016158;28;20270;-71
2022/11/02 06:59:09;;;;;;;6.40;3.85;;;;;;;12.36;nan;-24162.28;5016723;28;20180;-74
2022/11/02 07:01:34;;;;;;;8.73;4.07;;;;;;;12.64;nan;-24169.88;5015331;28;20180;-75
2022/11/02 07:04:01;;;;;;;9.55;4.38;;;;;;;12.80;nan;-24174.53;5016029;28;20262;-74
2022/11/02 07:06:26;;;;;;;7.30;3.88;;;;;;;13.11;nan;-24183.09;5016524;28;20191;-77
2022/11/02 07:08:53;;;;;;;7.18;3.70;;;;;;;13.27;nan;-24187.47;5021982;28;20198;-73
2022/11/02 07:11:19;;;;;;;5.10;3.50;;;;;;;13.59;nan;-24196.44;5016486;28;20290;-71
2022/11/02 07:13:44;;;;;;;7.13;4.88;;;;;;;13.56;nan;-24195.47;5014717;28;20575;-72
2022/11/02 07:16:10;;;;;;;7.82;4.28;;;;;;;14.27;nan;-24215.13;5016060;28;20549;-70
2022/11/02 07:18:35;;;;;;;9.73;3.85;;;;;;;14.28;nan;-24215.53;5017329;28;20673;-74
2022/11/02 07:21:01;;;;;;;7.72;3.90;;;;;;;14.36;nan;-24217.66;5016373;28;20280;-74
2022/11/02 07:23:27;;;;;;;10.43;3.67;;;;;;;14.64;nan;-24225.50;5016716;28;20190;-73
2022/11/02 07:25:53;;;;;;;10.48;3.97;;;;;;;14.84;nan;-24230.97;5019027;28;20234;-73
2022/11/02 07:28:19;;;;;;;7.38;3.70;;;;;;;14.60;nan;-24224.38;5021791;28;20184;-74
2022/11/02 07:30:44;;;;;;;5.25;3.03;;;;;;;15.22;nan;-24241.47;5020458;28;20176;-75
2022/11/02 07:33:10;;;;;;;6.22;3.65;;;;;;;15.14;nan;-24239.38;5019585;28;20175;-74
2022/11/02 07:35:36;;;;;;;7.10;4.32;;;;;;;15.00;nan;-24235.44;5020242;28;20180;-72
2022/11/02 07:38:06;;;;;;;6.88;3.38;;;;;;;15.11;nan;-24238.38;5019344;28;20179;-73
2022/11/02 07:40:34;;;;;;;7.78;3.42;;;;;;;15.36;nan;-24245.38;5020838;28;20726;-74
2022/11/02 07:43:00;;;;;;;8.27;3.20;;;;;;;15.62;nan;-24252.69;5019902;28;20176;-74
2022/11/02 07:45:27;;;;;;;15.10;3.65;;;;;;;15.74;nan;-24256.03;5020754;28;20176;-72
2022/11/02 07:47:53;;;;;;;8.40;3.63;;;;;;;16.00;nan;-24263.03;5020350;28;20175;-75
2022/11/02 07:50:22;;;;;;;7.13;3.05;;;;;;;16.07;nan;-24265.13;5019877;28;20661;-74
2022/11/02 07:52:53;;;;;;;8.27;3.97;;;;;;;13.23;nan;-24186.47;5017785;28;20183;-73
2022/11/02 07:55:24;;;;;;;11.18;3.63;;;;;;;16.45;nan;-24275.63;5020441;28;20199;-73
2022/11/02 07:57:57;;;;;;;8.10;3.47;;;;;;;16.56;nan;-24278.53;5018794;28;20267;-73
2022/11/02 08:00:28;;;;;;;6.90;3.35;;;;;;;16.70;nan;-24282.59;5019488;28;20824;-72
2022/11/02 08:02:55;;;;;;;9.63;3.45;;;;;;;16.48;nan;-24276.31;5018723;28;20362;-75
2022/11/02 08:05:20;;;;;;;8.52;3.95;;;;;;;17.03;nan;-24291.53;5019842;28;20210;-72
2022/11/02 08:07:46;;;;;;;6.85;3.65;;;;;;;17.12;nan;-24294.19;5018823;28;20218;-73
2022/11/02 08:10:11;;;;;;;6.88;3.63;;;;;;;17.27;nan;-24298.25;5020666;28;20565;-72
2022/11/02 08:12:37;;;;;;;8.80;3.08;;;;;;;17.07;nan;-24292.81;5019161;28;20261;-73
2022/11/02 08:15:02;;;;;;;13.77;3.22;;;;;;;17.50;nan;-24304.53;5018705;28;20198;-72
2022/11/02 08:17:28;;;;;;;6.07;3.28;;;;;;;17.60;nan;-24307.47;5020286;28;20644;-71
2022/11/02 08:19:53;;;;;;;9.13;3.67;;;;;;;17.90;nan;-24315.53;5017307;28;20191;-72
2022/11/02 08:22:19;;;;;;;3.92;2.58;;;;;;;17.90;nan;-24315.53;5021543;28;20200;-72
2022/11/02 08:24:44;;;;;;;5.45;2.95;;;;;;;17.56;nan;-24306.19;5029731;28;20187;-72
2022/11/02 08:27:09;;;;;;;5.57;3.40;;;;;;;18.04;nan;-24319.59;5016823;28;20183;-73
2022/11/02 08:29:35;;;;;;;11.80;5.00;;;;;;;18.00;nan;-24318.47;5048234;28;20469;-72
2022/11/02 08:32:01;;;;;;;6.57;3.55;;;;;;;18.09;nan;-24320.84;5034138;28;20217;-72
2022/11/02 08:34:27;;;;;;;5.25;3.10;;;;;;;18.03;nan;-24319.31;5034567;28;20267;-73
2022/11/02 08:36:52;;;;;;;9.93;3.38;;;;;;;18.47;nan;-24331.28;5032510;28;20203;-72
2022/11/02 08:39:17;;;;;;;5.05;3.08;;;;;;;18.61;nan;-24335.19;5034246;28;20179;-74
2022/11/02 08:41:43;;;;;;;9.40;3.47;;;;;;;18.60;nan;-24334.91;5031731;28;20266;-74
2022/11/02 08:44:08;;;;;;;5.38;3.22;;;;;;;18.98;nan;-24345.50;5033661;28;20233;-73
2022/11/02 08:46:33;;;;;;;6.72;3.65;;;;;;;19.00;nan;-24345.78;5033886;28;20171;-71
2022/11/02 08:48:59;;;;;;;5.43;2.85;;;;;;;19.34;nan;-24355.25;5034089;28;20649;-72
2022/11/02 08:51:24;;;;;;;5.80;3.30;;;;;;;15.33;nan;-24244.56;5034275;28;20241;-73
2022/11/02 08:53:50;;;;;;;5.03;3.15;;;;;;;19.23;nan;-24352.31;5033385;28;20289;-74
2022/11/02 08:56:16;;;;;;;7.07;3.22;;;;;;;19.63;nan;-24363.16;5033228;28;20217;-73
2022/11/02 08:58:41;;;;;;;6.68;3.28;;;;;;;19.78;nan;-24367.47;5034070;28;20180;-75
2022/11/02 09:01:06;;;;;;;6.03;3.20;;;;;;;19.82;nan;-24368.47;5033594;28;20203;-73
2022/11/02 09:03:32;;;;;;;5.82;2.88;;;;;;;19.85;nan;-24369.28;5033777;28;20195;-74
2022/11/02 09:05:59;;;;;;;6.15;3.10;;;;;;;20.12;nan;-24376.66;5033918;28;20175;-74
2022/11/02 09:08:26;;;;;;;8.05;2.97;;;;;;;20.45;nan;-24385.69;5033794;28;20167;-73
2022/11/02 09:10:52;;;;;;;7.10;3.03;;;;;;;20.66;nan;-24391.50;5034132;28;20176;-72
2022/11/02 09:13:23;;;;;;;5.68;2.97;;;;;;;20.95;nan;-24399.56;5031972;28;20180;-72
2022/11/02 09:15:51;;;;;;;5.38;2.80;;;;;;;20.98;nan;-24400.38;5032155;28;20183;-72
2022/11/02 09:18:16;;;;;;;5.63;3.15;;;;;;;21.39;nan;-24411.50;5033271;28;20249;-71
2022/11/02 09:20:41;;;;;;;7.70;3.65;;;;;;;21.51;nan;-24414.94;5033531;28;20658;-73
2022/11/02 09:23:07;;;;;;;8.20;3.67;;;;;;;21.41;nan;-24412.19;5032170;28;20187;-73
2022/11/02 09:25:32;;;;;;;5.95;3.20;;;;;;;21.79;nan;-24422.44;5033152;28;20390;-72
2022/11/02 09:27:58;;;;;;;6.20;3.35;;;;;;;21.90;nan;-24425.47;5033375;28;20175;-74
2022/11/02 09:30:25;;;;;;;4.60;2.47;;;;;;;21.79;nan;-24422.44;5033392;28;20198;-74
2022/11/02 09:32:58;;;;;;;7.22;3.00;;;;;;;22.27;nan;-24435.59;5032975;28;20665;-74
2022/11/02 09:35:25;;;;;;;5.00;3.13;;;;;;;22.47;nan;-24441.25;5033393;28;20625;-73
2022/11/02 09:37:50;;;;;;;6.63;3.45;;;;;;;22.69;nan;-24447.06;5031920;28;20171;-72
2022/11/02 09:40:21;;;;;;;9.40;3.60;;;;;;;22.87;nan;-24452.19;5031536;28;20531;-72
2022/11/02 09:43:05;;;;;;;5.93;2.97;;;;;;;23.19;nan;-24460.75;5032909;28;20168;-73
2022/11/02 09:45:35;;;;;;;4.47;2.80;;;;;;;22.95;nan;-24454.25;5032532;28;20340;-73
2022/11/02 09:48:15;;;;;;;9.38;3.30;;;;;;;23.38;nan;-24466.00;5031347;28;20310;-79
2022/11/02 09:50:47;;;;;;;11.30;3.50;;;;;;;23.51;nan;-24469.59;5031844;28;20179;-74
2022/11/02 09:53:31;;;;;;;6.13;3.40;;;;;;;23.45;nan;-24467.94;5031309;28;20179;-73
2022/11/02 09:55:59;;;;;;;5.03;2.78;;;;;;;23.63;nan;-24472.91;5032960;28;20195;-74
2022/11/02 09:58:34;;;;;;;5.68;2.67;;;;;;;23.79;nan;-24477.19;5033053;28;20181;-78
2022/11/02 10:01:10;;;;;;;4.65;2.70;;;;;;;24.25;nan;-24489.75;5032945;28;20171;-74
2022/11/02 10:03:52;;;;;;;3.88;2.42;;;;;;;24.06;nan;-24484.50;5032367;28;20185;-74
2022/11/02 10:06:21;;;;;;;4.38;2.78;;;;;;;24.17;nan;-24487.53;5032251;28;20168;-73
2022/11/02 10:09:12;;;;;;;4.55;2.78;;;;;;;24.25;nan;-24489.59;5032545;28;20249;-73
2022/11/02 10:11:55;;;;;;;8.27;2.80;;;;;;;24.39;nan;-24493.47;5032557;28;20190;-72
2022/11/02 10:14:32;;;;;;;4.45;2.63;;;;;;;24.28;nan;-24490.56;5030977;28;20670;-74
2022/11/02 10:17:03;;;;;;;6.85;3.13;;;;;;;24.70;nan;-24502.00;5033069;28;20174;-73
2022/11/02 10:19:31;;;;;;;4.93;2.65;;;;;;;24.79;nan;-24504.47;5032763;28;20187;-74
2022/11/02 10:21:57;;;;;;;5.22;2.72;;;;;;;24.85;nan;-24506.13;5032894;28;20171;-73
2022/11/02 10:24:41;;;;;;;3.67;2.15;;;;;;;25.08;nan;-24512.34;5032498;28;20302;-73
2022/11/02 10:27:28;;;;;;;3.78;2.28;;;;;;;25.34;nan;-24519.34;5032211;28;20222;-72
2022/11/02 10:30:06;;;;;;;6.28;2.10;;;;;;;25.61;nan;-24526.78;5032523;28;20283;-72
2022/11/02 10:32:34;;;;;;;3.15;2.08;;;;;;;25.87;nan;-24533.81;5032777;28;20191;-71
2022/11/02 10:35:02;;;;;;;3.40;2.10;;;;;;;25.87;nan;-24533.81;5033899;28;20274;-74
2022/11/02 10:37:49;;;;;;;3.30;2.10;;;;;;;26.40;nan;-24548.09;5032656;28;20203;-71
2022/11/02 10:40:31;;;;;;;5.40;2.45;;;;;;;26.20;nan;-24542.72;5032831;28;20203;-72
2022/11/02 10:43:17;;;;;;;4.82;2.53;;;;;;;26.39;nan;-24547.97;5032513;28;20179;-71
2022/11/02 10:45:52;;;;;;;15.35;2.47;;;;;;;26.57;nan;-24552.91;5032566;28;20618;-71
2022/11/02 10:48:26;;;;;;;3.22;2.17;;;;;;;26.57;nan;-24552.91;5033214;28;20178;-74
2022/11/02 10:51:12;;;;;;;5.60;2.35;;;;;;;26.59;nan;-24553.44;5033579;28;20181;-72
2022/11/02 10:53:45;;;;;;;4.72;2.70;;;;;;;26.57;nan;-24552.91;5021056;28;20192;-72
2022/11/02 10:56:21;;;;;;;3.83;2.15;;;;;;;26.79;nan;-24558.94;5012516;28;20183;-72
2022/11/02 10:58:59;;;;;;;5.18;2.38;;;;;;;26.90;nan;-24561.81;5013130;28;20167;-72
2022/11/02 11:01:26;;;;;;;3.25;1.98;;;;;;;26.73;nan;-24557.16;5012621;28;20528;-72
2022/11/02 11:04:03;;;;;;;5.63;2.00;;;;;;;27.18;nan;-24569.50;5012910;28;20194;-72
2022/11/02 11:06:33;;;;;;;5.93;2.50;;;;;;;27.00;nan;-24564.44;5012406;28;20167;-72
2022/11/02 11:09:23;;;;;;;7.20;2.70;;;;;;;27.34;nan;-24573.63;5011772;28;20168;-72
2022/11/02 11:12:01;;;;;;;5.68;2.22;;;;;;;27.17;nan;-24569.22;5011692;28;20175;-74
2022/11/02 11:14:29;;;;;;;4.45;2.20;;;;;;;27.34;nan;-24573.75;5011703;28;20196;-73
2022/11/02 11:17:00;;;;;;;4.50;1.90;;;;;;;27.35;nan;-24574.03;5011480;28;20176;-71
2022/11/02 11:19:33;;;;;;;7.50;2.25;;;;;;;27.60;nan;-24580.75;5013256;28;20191;-72
2022/11/02 11:22:00;;;;;;;3.55;1.95;;;;;;;27.74;nan;-24584.59;5015771;28;20309;-74
2022/11/02 11:24:33;;;;;;;5.28;2.17;;;;;;;27.81;nan;-24586.50;5015276;28;20184;-72
2022/11/02 11:27:14;;;;;;;4.30;2.03;;;;;;;27.60;nan;-24580.88;5014016;28;20227;-74
2022/11/02 11:29:45;;;;;;;2.85;1.70;;;;;;;27.49;nan;-24577.72;5013663;28;20179;-69
2022/11/02 11:32:28;;;;;;;3.33;2.17;;;;;;;27.63;nan;-24581.56;5022455;28;20175;-69
2022/11/02 11:35:03;;;;;;;4.40;2.25;;;;;;;27.90;nan;-24588.97;5015259;28;20203;-68
2022/11/02 11:37:30;;;;;;;3.78;2.13;;;;;;;28.01;nan;-24591.97;5017318;28;20191;-70
2022/11/02 11:39:59;;;;;;;3.72;1.98;;;;;;;28.20;nan;-24596.91;5015350;28;20221;-69
2022/11/02 11:42:28;;;;;;;4.53;2.15;;;;;;;28.20;nan;-24596.91;5017431;28;20182;-68
2022/11/02 11:45:12;;;;;;;3.95;2.15;;;;;;;28.21;nan;-24597.19;5015798;28;20222;-69
2022/11/02 11:47:41;;;;;;;3.05;2.08;;;;;;;28.22;nan;-24597.44;5015412;28;20196;-69
2022/11/02 11:50:14;;;;;;;10.10;2.60;;;;;;;28.21;nan;-24597.19;5015005;28;20179;-70
2022/11/02 11:52:40;;;;;;;4.78;2.13;;;;;;;28.43;nan;-24603.19;5016473;28;20183;-69
2022/11/02 11:55:25;;;;;;;3.78;2.28;;;;;;;28.34;nan;-24600.75;5015814;28;20218;-69
2022/11/02 11:58:12;;;;;;;4.45;2.30;;;;;;;28.48;nan;-24604.56;5014571;28;20710;-69
2022/11/02 12:00:38;;;;;;;5.20;2.30;;;;;;;28.48;nan;-24604.56;5015965;28;20182;-68
2022/11/02 12:03:09;;;;;;;3.30;2.08;;;;;;;28.52;nan;-24605.66;5016418;28;20176;-72
2022/11/02 12:05:48;;;;;;;4.60;2.80;;;;;;;28.54;nan;-24606.34;5014884;28;20195;-70
2022/11/02 12:08:57;;;;;;;5.28;2.40;;;;;;;28.63;nan;-24608.66;5016386;28;20178;-70